Time;durP1;ratioP1;P1;durP2;ratioP2;P2;SDS_P1;SDS_P2;PMS_P1;PMS_P2;Temp;Humidity;BMP_temperature;BMP_pressure;BME280_temperature;BME280_humidity;BME280_pressure;Samples;Min_cycle;Max_cycle;Signal;HPM_P1;HPM_P2
2021/12/05 00:23:10;;;;;;;0.10;0.10;;;;;;;;;;5063381;27;21013;-74
2021/12/05 00:25:38;;;;;;;0.20;0.20;;;;;;;;;;5061111;28;20209;-73
2021/12/05 00:28:32;;;;;;;2.17;0.83;;;;;;;;;;5062605;28;20690;-72
2021/12/05 00:31:18;;;;;;;0.53;0.17;;;;;;;;;;5061619;28;20809;-72
2021/12/05 00:34:10;;;;;;;8.00;0.97;;;;;;;;;;5058296;28;20274;-73
2021/12/05 00:42:53;;;;;;;5.93;0.37;;;;;;;;;;4981270;28;20206;-72
2021/12/05 00:45:40;;;;;;;0.13;0.13;;;;;;;;;;5059087;28;20723;-72
2021/12/05 00:56:42;;;;;;;3.20;0.93;;;;;;;;;;5062052;28;20729;-74
2021/12/05 00:59:32;;;;;;;1.70;0.60;;;;;;;;;;5061692;28;20261;-73
2021/12/05 01:02:16;;;;;;;1.20;0.27;;;;;;;;;;5061445;28;20207;-73
2021/12/05 01:05:06;;;;;;;0.20;0.20;;;;;;;;;;5065284;28;20207;-74
2021/12/05 01:07:55;;;;;;;1.30;1.20;;;;;;;;;;5064496;28;20192;-74
2021/12/05 01:13:30;;;;;;;1.27;1.23;;;;;;;;;;5058323;28;20207;-73
2021/12/05 01:15:59;;;;;;;0.23;0.23;;;;;;;;;;5058751;28;20235;-73
2021/12/05 01:18:26;;;;;;;2.67;0.50;;;;;;;;;;5065421;28;20282;-73
2021/12/05 01:20:58;;;;;;;1.57;1.47;;;;;;;;;;5063993;28;20227;-73
2021/12/05 01:23:32;;;;;;;18.13;0.40;;;;;;;;;;5066039;28;20203;-74
2021/12/05 01:26:04;;;;;;;1.07;0.97;;;;;;;;;;5064428;28;20193;-73
2021/12/05 01:28:48;;;;;;;0.60;0.50;;;;;;;;;;5076085;28;20277;-73
2021/12/05 01:31:21;;;;;;;0.33;0.27;;;;;;;;;;5063086;28;20300;-73
2021/12/05 01:33:57;;;;;;;0.50;0.50;;;;;;;;;;5054604;28;20223;-73
2021/12/05 01:36:31;;;;;;;0.27;0.17;;;;;;;;;;5046674;28;20211;-73
2021/12/05 01:39:11;;;;;;;0.43;0.43;;;;;;;;;;5052412;28;20208;-73
2021/12/05 01:53:11;;;;;;;0.20;0.20;;;;;;;;;;5050670;28;20235;-71
2021/12/05 01:56:13;;;;;;;0.50;0.50;;;;;;;;;;5051313;28;20253;-70
2021/12/05 02:10:43;;;;;;;0.00;0.00;;;;;;;;;;5050787;28;20206;-70
2021/12/05 02:16:01;;;;;;;3.57;1.00;;;;;;;;;;5047157;28;20799;-69
2021/12/05 02:29:59;;;;;;;0.00;0.00;;;;;;;;;;5025161;28;20211;-70
2021/12/05 02:35:25;;;;;;;1.30;1.30;;;;;;;;;;5049579;28;20211;-70
2021/12/05 02:40:53;;;;;;;1.97;1.53;;;;;;;;;;5030529;28;20273;-70
2021/12/05 02:43:26;;;;;;;0.10;0.10;;;;;;;;;;5048344;28;20203;-70
2021/12/05 02:45:58;;;;;;;0.00;0.00;;;;;;;;;;5047111;28;20214;-71
2021/12/05 02:48:28;;;;;;;0.20;0.20;;;;;;;;;;5048603;28;20196;-71
2021/12/05 02:50:56;;;;;;;0.00;0.00;;;;;;;;;;5051070;28;20306;-73
2021/12/05 02:53:34;;;;;;;0.20;0.20;;;;;;;;;;5052341;28;20227;-70
2021/12/05 02:56:02;;;;;;;0.20;0.20;;;;;;;;;;5038932;28;20206;-70
2021/12/05 02:58:36;;;;;;;0.40;0.40;;;;;;;;;;5051601;28;20554;-75
2021/12/05 03:01:13;;;;;;;0.10;0.10;;;;;;;;;;5050007;28;20218;-70
2021/12/05 03:03:40;;;;;;;2.50;0.67;;;;;;;;;;5049894;28;20247;-71
2021/12/05 03:06:15;;;;;;;0.03;0.03;;;;;;;;;;5051982;28;20211;-70
2021/12/05 03:08:44;;;;;;;0.00;0.00;;;;;;;;;;5048578;28;20281;-73
2021/12/05 03:11:11;;;;;;;0.27;0.27;;;;;;;;;;5049816;28;20207;-69
2021/12/05 03:13:41;;;;;;;0.57;0.40;;;;;;;;;;5056356;28;20584;-70
2021/12/05 03:16:10;;;;;;;0.50;0.50;;;;;;;;;;5048850;28;20589;-70
2021/12/05 03:18:37;;;;;;;0.00;0.00;;;;;;;;;;5050827;28;20211;-69
2021/12/05 03:21:07;;;;;;;0.03;0.03;;;;;;;;;;5047380;28;20211;-69
2021/12/05 03:23:35;;;;;;;0.47;0.30;;;;;;;;;;5049773;28;20226;-70
2021/12/05 03:26:04;;;;;;;0.00;0.00;;;;;;;;;;5052216;28;20546;-76
2021/12/05 03:28:33;;;;;;;0.00;0.00;;;;;;;;;;5042495;28;20661;-70
2021/12/05 03:31:00;;;;;;;0.00;0.00;;;;;;;;;;5050318;28;20215;-71
2021/12/05 03:33:29;;;;;;;0.00;0.00;;;;;;;;;;5050075;28;20219;-70
2021/12/05 03:35:56;;;;;;;0.53;0.40;;;;;;;;;;5049744;28;20338;-70
2021/12/05 03:38:23;;;;;;;0.13;0.13;;;;;;;;;;5048359;28;20210;-71
2021/12/05 03:40:51;;;;;;;0.67;0.50;;;;;;;;;;5048580;28;20206;-69
2021/12/05 03:43:21;;;;;;;0.00;0.00;;;;;;;;;;5049825;28;20195;-77
2021/12/05 03:45:49;;;;;;;0.07;0.00;;;;;;;;;;5050651;28;20199;-70
2021/12/05 03:48:17;;;;;;;0.20;0.20;;;;;;;;;;5048395;28;20215;-73
2021/12/05 03:50:45;;;;;;;0.00;0.00;;;;;;;;;;5042645;28;20202;-77
2021/12/05 03:53:13;;;;;;;0.00;0.00;;;;;;;;;;5043929;28;21598;-72
2021/12/05 03:55:41;;;;;;;0.37;0.37;;;;;;;;;;5049609;28;20203;-70
2021/12/05 03:58:09;;;;;;;0.37;0.37;;;;;;;;;;5049740;28;20732;-70
2021/12/05 04:00:41;;;;;;;0.20;0.20;;;;;;;;;;5047754;28;20207;-70
2021/12/05 04:03:10;;;;;;;0.00;0.00;;;;;;;;;;5049715;28;20207;-73
2021/12/05 04:05:38;;;;;;;0.00;0.00;;;;;;;;;;5050311;28;20196;-70
2021/12/05 04:08:07;;;;;;;0.00;0.00;;;;;;;;;;5049164;28;20207;-71
2021/12/05 04:10:35;;;;;;;0.00;0.00;;;;;;;;;;5048581;28;20250;-70
2021/12/05 04:13:02;;;;;;;0.33;0.17;;;;;;;;;;5049910;28;20232;-69
2021/12/05 04:15:30;;;;;;;0.30;0.30;;;;;;;;;;5049998;28;20199;-71
2021/12/05 04:17:59;;;;;;;0.33;0.30;;;;;;;;;;5048813;28;20295;-70
2021/12/05 04:20:27;;;;;;;0.23;0.23;;;;;;;;;;5046874;28;20214;-70
2021/12/05 04:22:55;;;;;;;0.00;0.00;;;;;;;;;;5047653;28;20227;-70
2021/12/05 04:25:23;;;;;;;0.10;0.10;;;;;;;;;;5047223;28;20290;-71
2021/12/05 04:27:53;;;;;;;0.00;0.00;;;;;;;;;;5053542;28;20249;-69
2021/12/05 04:30:22;;;;;;;0.03;0.03;;;;;;;;;;5051064;28;20222;-69
2021/12/05 04:32:49;;;;;;;0.37;0.20;;;;;;;;;;5046544;28;20704;-70
2021/12/05 04:35:18;;;;;;;0.40;0.40;;;;;;;;;;5044512;28;20571;-69
2021/12/05 04:37:46;;;;;;;0.03;0.03;;;;;;;;;;5049223;28;20661;-69
2021/12/05 04:40:14;;;;;;;0.10;0.10;;;;;;;;;;5049267;28;20200;-69
2021/12/05 04:42:42;;;;;;;0.63;0.53;;;;;;;;;;5047093;28;20208;-71
2021/12/05 04:45:11;;;;;;;0.03;0.03;;;;;;;;;;5049596;28;20210;-71
2021/12/05 04:47:38;;;;;;;0.73;0.57;;;;;;;;;;5044916;28;20200;-70
2021/12/05 04:50:06;;;;;;;0.10;0.10;;;;;;;;;;5043548;28;20207;-70
2021/12/05 04:52:35;;;;;;;0.00;0.00;;;;;;;;;;5044546;28;20572;-70
2021/12/05 04:55:03;;;;;;;0.00;0.00;;;;;;;;;;5045559;28;20203;-69
2021/12/05 04:57:30;;;;;;;0.50;0.50;;;;;;;;;;5045480;28;20199;-70
2021/12/05 04:59:57;;;;;;;0.00;0.00;;;;;;;;;;5044607;28;20195;-69
2021/12/05 05:02:25;;;;;;;0.00;0.00;;;;;;;;;;5041187;28;20211;-72
2021/12/05 05:04:53;;;;;;;0.40;0.27;;;;;;;;;;5043671;28;20214;-79
2021/12/05 05:07:23;;;;;;;0.00;0.00;;;;;;;;;;5041846;28;20202;-71
2021/12/05 05:09:54;;;;;;;0.20;0.20;;;;;;;;;;5048399;28;20199;-70
2021/12/05 05:12:21;;;;;;;0.00;0.00;;;;;;;;;;5045495;28;20239;-70
2021/12/05 05:14:50;;;;;;;0.00;0.00;;;;;;;;;;5045964;28;20211;-70
2021/12/05 05:17:18;;;;;;;0.50;0.50;;;;;;;;;;5048704;28;20592;-74
2021/12/05 05:19:49;;;;;;;0.00;0.00;;;;;;;;;;5044598;28;20207;-71
2021/12/05 05:22:24;;;;;;;0.00;0.00;;;;;;;;;;5045086;28;20227;-70
2021/12/05 05:30:45;;;;;;;0.00;0.00;;;;;;;;;;5046062;28;20253;-70
2021/12/05 05:47:09;;;;;;;0.00;0.00;;;;;;;;;;5039348;28;20211;-70
2021/12/05 05:49:52;;;;;;;0.43;0.43;;;;;;;;;;5043174;28;20682;-69
2021/12/05 05:52:20;;;;;;;0.00;0.00;;;;;;;;;;5043215;28;20219;-70
2021/12/05 05:54:49;;;;;;;0.00;0.00;;;;;;;;;;5043487;28;20211;-73
2021/12/05 05:57:24;;;;;;;0.00;0.00;;;;;;;;;;5044505;28;20282;-71
2021/12/05 05:59:58;;;;;;;0.00;0.00;;;;;;;;;;5045516;28;20598;-72
2021/12/05 06:05:11;;;;;;;0.00;0.00;;;;;;;;;;5044334;28;20766;-73
2021/12/05 06:07:44;;;;;;;0.00;0.00;;;;;;;;;;5043215;28;20687;-70
2021/12/05 06:10:12;;;;;;;0.00;0.00;;;;;;;;;;5044822;28;20227;-70
2021/12/05 06:12:41;;;;;;;0.00;0.00;;;;;;;;;;5044138;28;20227;-69
2021/12/05 06:15:12;;;;;;;0.10;0.10;;;;;;;;;;5045123;28;20195;-70
2021/12/05 06:17:40;;;;;;;0.00;0.00;;;;;;;;;;5044660;28;20268;-72
2021/12/05 06:20:08;;;;;;;0.00;0.00;;;;;;;;;;5042537;28;20249;-70
2021/12/05 06:22:36;;;;;;;0.00;0.00;;;;;;;;;;5042447;28;20542;-70
2021/12/05 06:25:04;;;;;;;0.00;0.00;;;;;;;;;;5044234;28;20192;-73
2021/12/05 06:27:31;;;;;;;0.00;0.00;;;;;;;;;;5043287;28;20242;-70
2021/12/05 06:30:08;;;;;;;0.00;0.00;;;;;;;;;;5043310;28;20208;-70
2021/12/05 06:36:51;;;;;;;0.00;0.00;;;;;;;;;;5043216;28;20234;-70
2021/12/05 06:38:40;;;;;;;0.00;0.00;;;;;;;;;;5043354;28;20238;-71
2021/12/05 06:41:17;;;;;;;0.00;0.00;;;;;;;;;;5043128;28;20218;-72
2021/12/05 06:46:33;;;;;;;0.00;0.00;;;;;;;;;;5043714;28;20210;-69
2021/12/05 06:49:01;;;;;;;0.00;0.00;;;;;;;;;;5041699;28;20204;-72
2021/12/05 06:51:30;;;;;;;0.00;0.00;;;;;;;;;;5044294;28;20204;-69
2021/12/05 06:53:59;;;;;;;0.00;0.00;;;;;;;;;;5043290;28;20231;-75
2021/12/05 06:56:27;;;;;;;0.00;0.00;;;;;;;;;;5041219;28;20224;-71
2021/12/05 06:58:55;;;;;;;0.10;0.10;;;;;;;;;;5043416;28;20289;-71
2021/12/05 07:01:23;;;;;;;0.00;0.00;;;;;;;;;;5044306;28;20627;-71
2021/12/05 07:03:52;;;;;;;0.00;0.00;;;;;;;;;;5042623;28;20212;-71
2021/12/05 07:06:23;;;;;;;0.00;0.00;;;;;;;;;;5041601;28;20199;-72
2021/12/05 07:08:53;;;;;;;0.00;0.00;;;;;;;;;;5042492;28;20203;-70
2021/12/05 07:11:25;;;;;;;0.00;0.00;;;;;;;;;;5046282;28;20230;-70
2021/12/05 07:14:28;;;;;;;0.00;0.00;;;;;;;;;;5042754;28;20267;-77
2021/12/05 07:17:01;;;;;;;0.63;0.10;;;;;;;;;;5040412;28;20210;-69
2021/12/05 07:19:41;;;;;;;0.00;0.00;;;;;;;;;;5043447;28;20246;-70
2021/12/05 07:22:18;;;;;;;0.00;0.00;;;;;;;;;;5042143;28;20227;-69
2021/12/05 07:24:49;;;;;;;0.00;0.00;;;;;;;;;;5042088;28;20202;-70
2021/12/05 07:41:21;;;;;;;0.00;0.00;;;;;;;;;;5042646;28;20242;-70
2021/12/05 07:43:49;;;;;;;0.00;0.00;;;;;;;;;;5044753;28;20257;-70
2021/12/05 07:46:16;;;;;;;0.00;0.00;;;;;;;;;;5039301;28;20560;-70
2021/12/05 07:48:46;;;;;;;0.00;0.00;;;;;;;;;;5040867;28;20211;-78
2021/12/05 07:51:24;;;;;;;0.00;0.00;;;;;;;;;;5045478;28;20210;-70
2021/12/05 07:53:59;;;;;;;0.00;0.00;;;;;;;;;;5043186;28;20227;-69
2021/12/05 07:56:36;;;;;;;0.00;0.00;;;;;;;;;;5044834;28;20213;-69
2021/12/05 07:59:24;;;;;;;0.03;0.03;;;;;;;;;;5043551;28;20203;-70
2021/12/05 08:15:44;;;;;;;0.00;0.00;;;;;;;;;;5038690;28;20207;-70
2021/12/05 08:18:12;;;;;;;0.00;0.00;;;;;;;;;;5038265;28;20195;-73
2021/12/05 08:20:43;;;;;;;0.00;0.00;;;;;;;;;;5042611;28;20214;-66
2021/12/05 08:23:13;;;;;;;0.00;0.00;;;;;;;;;;5042958;28;20237;-72
2021/12/05 08:25:43;;;;;;;0.00;0.00;;;;;;;;;;5041612;28;20223;-69
2021/12/05 08:28:24;;;;;;;0.00;0.00;;;;;;;;;;5041483;28;20235;-69
2021/12/05 08:31:04;;;;;;;0.00;0.00;;;;;;;;;;5054356;28;20203;-69
2021/12/05 08:33:43;;;;;;;0.00;0.00;;;;;;;;;;5042339;28;20227;-76
2021/12/05 08:36:40;;;;;;;0.00;0.00;;;;;;;;;;5048895;28;20290;-69
2021/12/05 08:39:36;;;;;;;0.00;0.00;;;;;;;;;;5050295;28;20687;-69
2021/12/05 08:42:32;;;;;;;0.00;0.00;;;;;;;;;;5041939;28;20207;-68
2021/12/05 09:24:07;;;;;;;0.00;0.00;;;;;;;;;;5044023;28;20227;-70
2021/12/05 10:11:03;;;;;;;0.00;0.00;;;;;;;;;;5040715;28;20563;-71
2021/12/05 10:13:38;;;;;;;0.00;0.00;;;;;;;;;;5042896;28;20220;-74
2021/12/05 10:16:16;;;;;;;0.00;0.00;;;;;;;;;;5042342;28;20659;-72
2021/12/05 10:19:25;;;;;;;0.00;0.00;;;;;;;;;;5050620;28;20645;-70
2021/12/05 10:27:26;;;;;;;0.20;0.20;;;;;;;;;;5044519;28;20257;-71
2021/12/05 10:35:53;;;;;;;0.10;0.10;;;;;;;;;;5043291;28;20244;-70
2021/12/05 10:38:21;;;;;;;0.30;0.30;;;;;;;;;;5046468;28;20312;-70
2021/12/05 10:40:58;;;;;;;0.00;0.00;;;;;;;;;;5042840;28;20207;-70
2021/12/05 10:43:45;;;;;;;0.30;0.20;;;;;;;;;;5062381;28;20249;-72
2021/12/05 10:46:14;;;;;;;0.73;0.73;;;;;;;;;;5063110;28;20286;-73
2021/12/05 10:48:43;;;;;;;0.00;0.00;;;;;;;;;;5053091;28;20234;-70
2021/12/05 10:51:14;;;;;;;0.00;0.00;;;;;;;;;;5049908;28;20207;-71
2021/12/05 10:53:43;;;;;;;0.00;0.00;;;;;;;;;;5053001;28;20235;-70
2021/12/05 10:56:13;;;;;;;0.00;0.00;;;;;;;;;;5050266;28;20199;-73
2021/12/05 10:58:42;;;;;;;0.00;0.00;;;;;;;;;;5053903;28;20644;-70
2021/12/05 11:01:28;;;;;;;0.00;0.00;;;;;;;;;;5062812;28;20215;-69
2021/12/05 11:03:57;;;;;;;0.10;0.10;;;;;;;;;;5065223;28;20229;-71
2021/12/05 11:06:32;;;;;;;0.20;0.20;;;;;;;;;;5050199;28;20550;-71
2021/12/05 11:09:02;;;;;;;0.00;0.00;;;;;;;;;;5050470;28;20203;-70
2021/12/05 11:11:30;;;;;;;0.00;0.00;;;;;;;;;;5051869;28;20196;-70
2021/12/05 11:14:01;;;;;;;0.00;0.00;;;;;;;;;;5049432;28;20351;-70
2021/12/05 11:16:33;;;;;;;0.00;0.00;;;;;;;;;;5050896;28;20204;-70
2021/12/05 11:19:00;;;;;;;0.00;0.00;;;;;;;;;;5051592;28;20215;-70
2021/12/05 11:21:31;;;;;;;0.00;0.00;;;;;;;;;;5055271;28;20311;-69
2021/12/05 11:24:07;;;;;;;0.10;0.10;;;;;;;;;;5049841;28;20562;-69
2021/12/05 11:26:35;;;;;;;0.10;0.10;;;;;;;;;;5047459;28;20207;-69
2021/12/05 11:29:02;;;;;;;0.00;0.00;;;;;;;;;;5061720;28;20200;-69
2021/12/05 11:31:31;;;;;;;0.83;0.83;;;;;;;;;;5047493;28;20195;-69
2021/12/05 11:33:58;;;;;;;0.20;0.10;;;;;;;;;;5050471;28;20249;-69
2021/12/05 11:36:27;;;;;;;0.00;0.00;;;;;;;;;;5051708;28;20208;-71
2021/12/05 11:38:54;;;;;;;0.00;0.00;;;;;;;;;;5050118;28;20596;-71
2021/12/05 11:41:24;;;;;;;0.00;0.00;;;;;;;;;;5049729;28;20202;-71
2021/12/05 11:43:53;;;;;;;0.87;0.87;;;;;;;;;;5049590;28;20257;-70
2021/12/05 11:46:22;;;;;;;0.00;0.00;;;;;;;;;;5050233;28;20223;-70
2021/12/05 11:48:51;;;;;;;0.20;0.20;;;;;;;;;;5050465;28;20296;-71
2021/12/05 11:51:24;;;;;;;0.50;0.50;;;;;;;;;;5051665;28;20588;-70
2021/12/05 11:53:52;;;;;;;0.00;0.00;;;;;;;;;;5056453;28;20222;-70
2021/12/05 11:56:22;;;;;;;0.23;0.23;;;;;;;;;;5051696;28;20207;-71
2021/12/05 11:59:04;;;;;;;0.00;0.00;;;;;;;;;;5049433;28;21528;-71
2021/12/05 12:01:36;;;;;;;0.10;0.10;;;;;;;;;;5054243;28;20209;-71
2021/12/05 12:04:05;;;;;;;0.00;0.00;;;;;;;;;;5050464;28;20222;-69
2021/12/05 12:06:33;;;;;;;0.00;0.00;;;;;;;;;;5050584;28;20199;-71
2021/12/05 12:09:00;;;;;;;0.00;0.00;;;;;;;;;;5055434;28;20200;-70
2021/12/05 12:11:28;;;;;;;0.00;0.00;;;;;;;;;;5055386;28;20202;-70
2021/12/05 12:13:55;;;;;;;0.00;0.00;;;;;;;;;;5054203;28;20700;-71
2021/12/05 12:16:23;;;;;;;0.27;0.27;;;;;;;;;;5045628;28;20208;-70
2021/12/05 12:18:52;;;;;;;0.23;0.20;;;;;;;;;;5050482;28;20591;-70
2021/12/05 12:21:21;;;;;;;0.00;0.00;;;;;;;;;;5042580;28;20590;-71
2021/12/05 12:23:49;;;;;;;0.03;0.03;;;;;;;;;;5048682;28;20218;-71
2021/12/05 12:26:17;;;;;;;0.00;0.00;;;;;;;;;;5043616;28;20203;-72
2021/12/05 12:28:44;;;;;;;0.00;0.00;;;;;;;;;;5045271;28;20873;-70
2021/12/05 12:31:13;;;;;;;0.00;0.00;;;;;;;;;;5048408;28;20536;-72
2021/12/05 12:33:42;;;;;;;0.00;0.00;;;;;;;;;;5046190;28;20207;-72
2021/12/05 12:36:11;;;;;;;0.00;0.00;;;;;;;;;;5046522;28;20575;-72
2021/12/05 12:38:42;;;;;;;0.27;0.27;;;;;;;;;;5051493;28;20552;-71
2021/12/05 12:41:14;;;;;;;1.13;1.03;;;;;;;;;;5049909;28;20576;-70
2021/12/05 12:43:53;;;;;;;0.33;0.33;;;;;;;;;;5048515;28;20222;-70
2021/12/05 12:46:32;;;;;;;0.00;0.00;;;;;;;;;;5048292;28;20202;-71
2021/12/05 12:49:01;;;;;;;0.00;0.00;;;;;;;;;;5049141;28;20203;-70
2021/12/05 12:51:32;;;;;;;0.00;0.00;;;;;;;;;;5052909;28;20556;-70
2021/12/05 12:54:02;;;;;;;0.00;0.00;;;;;;;;;;5048153;28;20734;-70
2021/12/05 12:56:30;;;;;;;0.00;0.00;;;;;;;;;;5049058;28;20246;-71
2021/12/05 12:59:00;;;;;;;0.00;0.00;;;;;;;;;;5050651;28;20208;-71
2021/12/05 13:01:41;;;;;;;0.47;0.47;;;;;;;;;;5049641;28;20203;-71
2021/12/05 13:09:57;;;;;;;0.00;0.00;;;;;;;;;;5046080;28;20226;-69
2021/12/05 13:10:08;;;;;;;0.00;0.00;;;;;;;;;;5048264;28;20741;-70
2021/12/05 13:12:48;;;;;;;0.00;0.00;;;;;;;;;;5039265;28;20231;-70
2021/12/05 13:15:17;;;;;;;0.00;0.00;;;;;;;;;;5048902;28;20650;-70
2021/12/05 13:17:46;;;;;;;0.00;0.00;;;;;;;;;;5043073;28;20203;-69
2021/12/05 13:20:15;;;;;;;0.00;0.00;;;;;;;;;;5049042;28;20707;-70
2021/12/05 13:23:00;;;;;;;0.00;0.00;;;;;;;;;;5050427;28;20603;-72
2021/12/05 13:25:29;;;;;;;0.00;0.00;;;;;;;;;;5049202;28;20219;-71
2021/12/05 13:27:57;;;;;;;0.00;0.00;;;;;;;;;;5044576;28;20196;-73
2021/12/05 13:30:32;;;;;;;0.00;0.00;;;;;;;;;;5043483;28;20199;-71
2021/12/05 13:33:19;;;;;;;0.00;0.00;;;;;;;;;;5044646;28;20687;-71
2021/12/05 13:35:46;;;;;;;0.00;0.00;;;;;;;;;;5048548;28;20245;-71
2021/12/05 13:38:35;;;;;;;0.00;0.00;;;;;;;;;;5050523;28;20203;-70
2021/12/05 13:41:13;;;;;;;0.00;0.00;;;;;;;;;;5048708;28;20212;-70
2021/12/05 13:43:41;;;;;;;0.00;0.00;;;;;;;;;;5046548;28;20203;-72
2021/12/05 13:46:26;;;;;;;0.20;0.20;;;;;;;;;;5050393;28;20661;-75
2021/12/05 13:48:54;;;;;;;0.00;0.00;;;;;;;;;;5050539;28;20199;-72
2021/12/05 13:51:26;;;;;;;0.10;0.10;;;;;;;;;;5051902;28;20204;-75
2021/12/05 13:53:59;;;;;;;0.00;0.00;;;;;;;;;;5048406;28;21019;-70
2021/12/05 13:56:28;;;;;;;0.00;0.00;;;;;;;;;;5047792;28;20195;-71
2021/12/05 13:58:59;;;;;;;0.00;0.00;;;;;;;;;;5049771;28;20199;-73
2021/12/05 14:01:28;;;;;;;0.00;0.00;;;;;;;;;;5050303;28;20664;-73
2021/12/05 14:04:05;;;;;;;0.00;0.00;;;;;;;;;;5049418;28;20208;-74
2021/12/05 14:06:40;;;;;;;0.00;0.00;;;;;;;;;;5043523;28;20207;-74
2021/12/05 14:09:11;;;;;;;0.00;0.00;;;;;;;;;;5047802;28;20219;-80
2021/12/05 14:11:42;;;;;;;0.00;0.00;;;;;;;;;;5047257;28;20203;-72
2021/12/05 14:14:10;;;;;;;0.00;0.00;;;;;;;;;;5050143;28;20249;-73
2021/12/05 14:16:39;;;;;;;0.00;0.00;;;;;;;;;;5043900;28;20532;-75
2021/12/05 14:19:07;;;;;;;0.00;0.00;;;;;;;;;;5040732;28;20612;-77
2021/12/05 14:21:35;;;;;;;0.00;0.00;;;;;;;;;;5044140;28;20632;-74
2021/12/05 14:24:03;;;;;;;0.00;0.00;;;;;;;;;;5046998;28;20580;-74
2021/12/05 14:26:36;;;;;;;0.00;0.00;;;;;;;;;;5045338;28;20861;-75
2021/12/05 14:29:05;;;;;;;0.13;0.13;;;;;;;;;;5047158;28;20200;-76
2021/12/05 14:31:33;;;;;;;0.00;0.00;;;;;;;;;;5044858;28;20199;-74
2021/12/05 14:34:01;;;;;;;0.20;0.20;;;;;;;;;;5044466;28;20203;-74
2021/12/05 14:36:30;;;;;;;0.67;0.53;;;;;;;;;;5041766;28;20292;-74
2021/12/05 14:39:08;;;;;;;0.10;0.10;;;;;;;;;;5047827;28;20222;-74
2021/12/05 14:41:38;;;;;;;0.00;0.00;;;;;;;;;;5046895;28;20206;-76
2021/12/05 14:44:05;;;;;;;0.00;0.00;;;;;;;;;;5036489;28;20197;-74
2021/12/05 14:46:33;;;;;;;0.00;0.00;;;;;;;;;;5039406;28;20203;-72
2021/12/05 14:49:03;;;;;;;0.00;0.00;;;;;;;;;;5044846;28;20590;-71
2021/12/05 14:51:34;;;;;;;0.00;0.00;;;;;;;;;;5042503;28;20262;-71
2021/12/05 14:54:03;;;;;;;0.00;0.00;;;;;;;;;;5046106;28;20203;-73
2021/12/05 14:56:32;;;;;;;0.00;0.00;;;;;;;;;;5045832;28;20309;-73
2021/12/05 14:59:05;;;;;;;0.00;0.00;;;;;;;;;;5046124;28;20192;-70
2021/12/05 15:01:32;;;;;;;0.00;0.00;;;;;;;;;;5047190;28;20218;-73
2021/12/05 15:04:02;;;;;;;0.20;0.20;;;;;;;;;;5046068;28;20203;-75
2021/12/05 15:06:35;;;;;;;0.00;0.00;;;;;;;;;;5044005;28;20204;-72
2021/12/05 15:09:05;;;;;;;0.00;0.00;;;;;;;;;;5047572;28;20195;-73
2021/12/05 15:11:33;;;;;;;0.00;0.00;;;;;;;;;;5046644;28;20625;-71
2021/12/05 15:14:06;;;;;;;0.00;0.00;;;;;;;;;;5046006;28;20577;-70
2021/12/05 15:16:33;;;;;;;0.00;0.00;;;;;;;;;;5049183;28;20723;-71
2021/12/05 15:19:01;;;;;;;0.00;0.00;;;;;;;;;;5049643;28;20226;-71
2021/12/05 15:21:35;;;;;;;0.00;0.00;;;;;;;;;;5047445;28;20598;-72
2021/12/05 15:24:12;;;;;;;0.00;0.00;;;;;;;;;;5049154;28;20277;-75
2021/12/05 15:26:39;;;;;;;0.00;0.00;;;;;;;;;;5063068;28;20199;-70
2021/12/05 15:29:08;;;;;;;0.00;0.00;;;;;;;;;;5048135;28;20574;-71
2021/12/05 15:31:37;;;;;;;0.00;0.00;;;;;;;;;;5050644;28;20694;-71
2021/12/05 15:34:18;;;;;;;0.10;0.10;;;;;;;;;;5051098;28;20206;-70
2021/12/05 15:36:46;;;;;;;0.00;0.00;;;;;;;;;;5048440;28;20235;-72
2021/12/05 15:42:14;;;;;;;0.00;0.00;;;;;;;;;;5066346;22;20796;-72
2021/12/05 15:44:43;;;;;;;0.00;0.00;;;;;;;;;;5036195;28;20208;-71
2021/12/05 15:47:13;;;;;;;0.00;0.00;;;;;;;;;;5033973;28;20600;-72
2021/12/05 15:49:49;;;;;;;0.00;0.00;;;;;;;;;;5011726;28;20212;-73
2021/12/05 15:52:17;;;;;;;0.00;0.00;;;;;;;;;;5028176;28;20249;-74
2021/12/05 15:54:45;;;;;;;0.00;0.00;;;;;;;;;;5025057;28;20211;-73
2021/12/05 15:57:14;;;;;;;0.00;0.00;;;;;;;;;;5025434;28;20214;-73
2021/12/05 15:59:46;;;;;;;0.00;0.00;;;;;;;;;;5027367;28;20299;-72
2021/12/05 16:02:17;;;;;;;0.00;0.00;;;;;;;;;;5028083;28;20251;-73
2021/12/05 16:04:45;;;;;;;0.00;0.00;;;;;;;;;;5026330;28;20208;-72
2021/12/05 16:07:12;;;;;;;0.00;0.00;;;;;;;;;;5025185;28;20211;-74
2021/12/05 16:09:41;;;;;;;0.00;0.00;;;;;;;;;;5023753;28;20687;-71
2021/12/05 16:12:11;;;;;;;0.00;0.00;;;;;;;;;;5022983;28;20208;-74
2021/12/05 16:14:42;;;;;;;0.00;0.00;;;;;;;;;;5038939;28;20199;-72
2021/12/05 16:17:24;;;;;;;0.77;0.47;;;;;;;;;;5027440;28;20620;-71
2021/12/05 16:20:08;;;;;;;0.00;0.00;;;;;;;;;;5021332;28;20235;-73
2021/12/05 16:22:50;;;;;;;0.47;0.47;;;;;;;;;;5015506;28;20609;-71
2021/12/05 16:25:18;;;;;;;0.00;0.00;;;;;;;;;;5028525;28;20671;-68
2021/12/05 16:27:49;;;;;;;0.00;0.00;;;;;;;;;;5027463;28;20211;-70
2021/12/05 16:30:21;;;;;;;0.00;0.00;;;;;;;;;;5027436;28;20197;-73
2021/12/05 16:32:50;;;;;;;0.10;0.10;;;;;;;;;;5022163;28;20213;-74
2021/12/05 16:35:26;;;;;;;0.00;0.00;;;;;;;;;;5027918;28;20242;-70
2021/12/05 16:37:54;;;;;;;0.00;0.00;;;;;;;;;;5026947;28;20678;-74
2021/12/05 16:40:22;;;;;;;0.00;0.00;;;;;;;;;;5026103;28;20584;-71
2021/12/05 16:42:49;;;;;;;1.33;1.23;;;;;;;;;;5026299;28;20236;-71
2021/12/05 16:45:17;;;;;;;0.00;0.00;;;;;;;;;;5023533;28;20208;-71
2021/12/05 16:47:45;;;;;;;0.00;0.00;;;;;;;;;;5026473;28;20210;-76
2021/12/05 16:50:14;;;;;;;0.00;0.00;;;;;;;;;;5026280;28;20353;-75
2021/12/05 16:52:48;;;;;;;0.00;0.00;;;;;;;;;;5027354;28;20212;-72
2021/12/05 16:55:23;;;;;;;1.33;0.63;;;;;;;;;;5026761;28;20228;-75
2021/12/05 16:57:58;;;;;;;0.00;0.00;;;;;;;;;;5027563;28;21686;-70
2021/12/05 17:00:26;;;;;;;0.10;0.10;;;;;;;;;;5028056;28;20210;-72
2021/12/05 17:02:54;;;;;;;0.00;0.00;;;;;;;;;;5018491;28;20208;-78
2021/12/05 17:05:26;;;;;;;0.00;0.00;;;;;;;;;;5031223;28;20201;-71
2021/12/05 17:08:01;;;;;;;0.00;0.00;;;;;;;;;;5034221;28;20224;-72
2021/12/05 17:10:33;;;;;;;0.30;0.30;;;;;;;;;;5031062;28;20243;-72
2021/12/05 17:13:10;;;;;;;0.00;0.00;;;;;;;;;;5031607;28;20203;-74
2021/12/05 17:15:39;;;;;;;0.00;0.00;;;;;;;;;;5033162;28;20230;-71
2021/12/05 17:18:14;;;;;;;0.77;0.77;;;;;;;;;;5030133;28;20204;-73
2021/12/05 17:20:46;;;;;;;0.00;0.00;;;;;;;;;;5030697;28;20219;-71
2021/12/05 17:23:15;;;;;;;0.00;0.00;;;;;;;;;;5029933;28;20221;-71
2021/12/05 17:25:43;;;;;;;0.10;0.10;;;;;;;;;;5034637;28;20208;-72
2021/12/05 17:28:12;;;;;;;1.83;1.73;;;;;;;;;;5025706;28;20196;-70
2021/12/05 17:30:50;;;;;;;0.00;0.00;;;;;;;;;;5024256;28;20212;-72
2021/12/05 17:33:26;;;;;;;0.00;0.00;;;;;;;;;;5032528;28;20210;-73
2021/12/05 17:35:54;;;;;;;0.00;0.00;;;;;;;;;;5030684;28;20228;-73
2021/12/05 17:38:32;;;;;;;0.00;0.00;;;;;;;;;;5033745;28;20205;-75
2021/12/05 17:40:59;;;;;;;0.00;0.00;;;;;;;;;;5028583;28;20196;-73
2021/12/05 17:43:27;;;;;;;0.00;0.00;;;;;;;;;;5032331;28;20200;-74
2021/12/05 17:45:56;;;;;;;0.00;0.00;;;;;;;;;;5029786;28;20204;-72
2021/12/05 17:48:24;;;;;;;0.70;0.70;;;;;;;;;;5032354;28;20283;-73
2021/12/05 17:50:53;;;;;;;0.00;0.00;;;;;;;;;;5031338;28;20287;-71
2021/12/05 17:53:28;;;;;;;0.37;0.37;;;;;;;;;;5030207;28;20239;-76
2021/12/05 17:56:01;;;;;;;1.87;1.77;;;;;;;;;;5030471;28;20231;-72
2021/12/05 17:58:49;;;;;;;0.73;0.43;;;;;;;;;;5031688;28;20196;-72
2021/12/05 18:04:02;;;;;;;0.50;0.50;;;;;;;;;;5031572;28;20214;-72
2021/12/05 18:06:30;;;;;;;0.10;0.10;;;;;;;;;;5030946;28;20208;-71
2021/12/05 18:08:58;;;;;;;0.77;0.77;;;;;;;;;;5029276;28;20209;-71
2021/12/05 18:11:26;;;;;;;0.40;0.40;;;;;;;;;;5023304;28;20574;-73
2021/12/05 18:13:58;;;;;;;0.07;0.07;;;;;;;;;;5030565;28;20203;-75
2021/12/05 18:16:27;;;;;;;0.73;0.73;;;;;;;;;;5025509;28;20639;-72
2021/12/05 18:18:56;;;;;;;0.00;0.00;;;;;;;;;;5020572;28;20204;-71
2021/12/05 18:21:25;;;;;;;0.00;0.00;;;;;;;;;;5026715;28;20216;-73
2021/12/05 18:23:53;;;;;;;0.20;0.20;;;;;;;;;;5035644;28;20270;-77
2021/12/05 18:26:22;;;;;;;1.80;1.13;;;;;;;;;;5026594;28;20204;-72
2021/12/05 18:28:51;;;;;;;0.00;0.00;;;;;;;;;;5029590;28;20204;-73
2021/12/05 18:31:20;;;;;;;1.70;1.60;;;;;;;;;;5031674;28;20568;-72
2021/12/05 18:33:49;;;;;;;0.70;0.27;;;;;;;;;;5029948;28;20286;-72
2021/12/05 18:36:17;;;;;;;2.63;2.30;;;;;;;;;;5029873;28;20224;-72
2021/12/05 18:38:45;;;;;;;0.17;0.13;;;;;;;;;;5032488;28;20204;-73
2021/12/05 18:41:15;;;;;;;0.00;0.00;;;;;;;;;;5028390;28;20271;-74
2021/12/05 18:43:44;;;;;;;0.00;0.00;;;;;;;;;;5024494;28;20204;-72
2021/12/05 18:46:13;;;;;;;0.00;0.00;;;;;;;;;;5027770;28;20291;-73
2021/12/05 18:48:42;;;;;;;0.00;0.00;;;;;;;;;;5031052;28;20204;-73
2021/12/05 18:51:10;;;;;;;0.00;0.00;;;;;;;;;;5031329;28;20197;-73
2021/12/05 18:53:39;;;;;;;0.10;0.10;;;;;;;;;;5030848;28;20201;-74
2021/12/05 18:56:06;;;;;;;0.20;0.20;;;;;;;;;;5029359;28;20224;-73
2021/12/05 18:58:34;;;;;;;0.13;0.13;;;;;;;;;;5029059;28;20196;-74
2021/12/05 19:06:39;;;;;;;0.87;0.87;;;;;;;;;;5025041;28;20219;-75
2021/12/05 19:09:17;;;;;;;3.40;0.83;;;;;;;;;;5027773;28;20228;-75
2021/12/05 19:11:45;;;;;;;0.50;0.47;;;;;;;;;;5027521;28;20200;-74
2021/12/05 19:14:14;;;;;;;0.00;0.00;;;;;;;;;;5024021;28;20208;-75
2021/12/05 19:16:43;;;;;;;0.00;0.00;;;;;;;;;;5024539;28;20727;-75
2021/12/05 19:19:10;;;;;;;0.00;0.00;;;;;;;;;;5027529;28;20211;-76